LiveATC.Net - Listen to live air traffic control over the Internet!

ICAO: KMSN  IATA: MSN   Airport: Dane County Regional Airport-Truax Field
City: Madison   State/Province: Wisconsin
Country: United States   Continent: North America
KMSN METAR Weather: KMSN 261253Z 11020G27KT 4SM RA BR BKN010 OVC015 07/06 A3013 RMK AO2 PK WND 11027/1253 SLP208 P0027 T00670056
KMSN Flight Activity (FlightAware)
KMSN Airport Info   (AirNav) (iFlightPlanner)
KMSN VFR Sectional Chart   (iFlightPlanner) 
KMSN IFR Low Chart   (iFlightPlanner) 
KMSN Twr/App
Feed Status: UP   Listeners: 4
Listen right in your browser - requires Flash (in browser, requires Flash)
Click here to listen with your own player (launches your MP3 player)
KMSN Twr/App Audio Archives
Emergency / GUARD121.500
Madison Approach (East)120.100
Madison Approach (West)135.450
Madison Tower119.300

Sponsored by: Wisconsin Aviation


Unauthorized use prohibited. See Terms of Service

Find LiveATC Audio Streams

Airport/ARTCC Code

(e.g., 124.400, 128.75)
Site-wide search

Browse LiveATC Feeds
LiveATC Coverage Map
Top 50 LiveATC Feeds
Bad Weather Areas

Offer a LiveATC Feed
Press Inquiries

LiveATC on iPhone
LiveATC on Android

Windows Phone
Windows 8/10

LiveATC Mobile
(Mobile browser)

ATC Audio Archives
Interesting Recordings

LiveATC Forums

Home Page
Make a Donation
LiveATC Store

Terms of Use
Privacy Policy

Canadian Air Freqs


FAA Airport Status
Nat'l Airspace Status
Arrival Demand Charts

Server Software By: